Time;durP1;ratioP1;P1;durP2;ratioP2;P2;SDS_P1;SDS_P2;PMS_P1;PMS_P2;Temp;Humidity;BMP_temperature;BMP_pressure;BME280_temperature;BME280_humidity;BME280_pressure;Samples;Min_cycle;Max_cycle;Signal;HPM_P1;HPM_P2
2021/03/04 00:02:08;;;;;;;69.13;39.92;;;8.40;80.10;;;;;;5166743;27;20058;-62
2021/03/04 00:04:34;;;;;;;48.55;30.42;;;8.50;80.00;;;;;;5144690;27;20063;-63
2021/03/04 00:07:00;;;;;;;42.55;27.85;;;8.50;79.90;;;;;;5165910;27;20454;-62
2021/03/04 00:09:25;;;;;;;40.75;26.25;;;8.50;79.70;;;;;;5155872;27;20027;-62
2021/03/04 00:11:51;;;;;;;33.38;25.08;;;8.50;79.80;;;;;;5166056;27;20088;-62
2021/03/04 00:14:16;;;;;;;34.10;23.75;;;8.50;79.80;;;;;;5161814;27;20018;-62
2021/03/04 00:16:42;;;;;;;35.05;23.92;;;8.50;79.60;;;;;;5160382;27;20027;-62
2021/03/04 00:19:08;;;;;;;34.50;24.05;;;8.50;79.30;;;;;;5168594;27;20504;-63
2021/03/04 00:21:33;;;;;;;38.63;24.45;;;8.50;79.50;;;;;;5174320;27;20056;-62
2021/03/04 00:23:59;;;;;;;40.25;26.70;;;8.50;79.50;;;;;;5148710;27;20062;-61
2021/03/04 00:26:24;;;;;;;37.50;25.90;;;8.50;79.70;;;;;;5155300;27;20027;-63
2021/03/04 00:28:50;;;;;;;39.30;26.10;;;8.50;79.50;;;;;;5174538;27;20500;-62
2021/03/04 00:31:15;;;;;;;40.88;26.17;;;8.50;79.50;;;;;;5168175;27;20544;-62
2021/03/04 00:33:41;;;;;;;38.25;26.08;;;8.50;79.30;;;;;;5170518;27;20552;-63
2021/03/04 00:36:07;;;;;;;40.83;25.10;;;8.50;79.50;;;;;;5153981;27;20047;-63
2021/03/04 00:38:32;;;;;;;36.08;24.67;;;8.50;79.50;;;;;;5168268;27;20034;-62
2021/03/04 00:40:58;;;;;;;41.28;25.27;;;8.50;79.50;;;;;;5170567;27;20105;-62
2021/03/04 00:43:24;;;;;;;37.97;25.77;;;8.40;79.60;;;;;;5173135;27;20034;-63
2021/03/04 00:45:50;;;;;;;39.03;25.08;;;8.40;79.70;;;;;;5156168;27;20038;-62
2021/03/04 00:48:15;;;;;;;34.88;24.77;;;8.40;79.60;;;;;;5156147;27;20035;-63
2021/03/04 00:50:41;;;;;;;36.75;25.60;;;8.50;79.40;;;;;;5153841;27;20061;-63
2021/03/04 00:53:07;;;;;;;38.55;25.35;;;8.40;79.70;;;;;;5161775;27;20222;-61
2021/03/04 00:55:33;;;;;;;36.42;26.65;;;8.40;79.60;;;;;;5156411;27;20037;-61
2021/03/04 00:57:59;;;;;;;39.58;26.20;;;8.30;79.80;;;;;;5158518;27;20035;-62
2021/03/04 01:00:25;;;;;;;40.38;26.17;;;8.10;80.70;;;;;;5157159;27;20019;-62
2021/03/04 01:02:51;;;;;;;36.75;25.60;;;8.10;80.80;;;;;;5163565;27;20091;-62
2021/03/04 01:05:17;;;;;;;38.72;25.42;;;8.10;80.60;;;;;;5173861;27;20030;-62
2021/03/04 01:07:43;;;;;;;44.25;26.33;;;8.10;80.60;;;;;;5153300;27;20034;-62
2021/03/04 01:10:11;;;;;;;38.80;26.35;;;8.00;81.00;;;;;;5167251;27;20389;-61
2021/03/04 01:12:37;;;;;;;34.92;24.80;;;8.10;80.60;;;;;;5153208;27;20565;-62
2021/03/04 01:15:11;;;;;;;42.67;27.10;;;8.00;80.90;;;;;;5161368;27;20039;-61
2021/03/04 01:17:37;;;;;;;39.60;25.45;;;8.10;80.60;;;;;;5131045;27;20069;-63
2021/03/04 01:20:09;;;;;;;34.70;23.67;;;8.00;80.50;;;;;;5160647;27;20063;-61
2021/03/04 01:22:35;;;;;;;42.33;25.95;;;8.10;80.60;;;;;;5172060;27;20507;-62
2021/03/04 01:25:01;;;;;;;38.63;25.92;;;8.10;80.70;;;;;;5151438;27;20034;-63
2021/03/04 01:27:27;;;;;;;38.00;26.48;;;8.00;80.60;;;;;;5171605;27;20396;-63
2021/03/04 01:29:52;;;;;;;35.85;24.80;;;8.00;80.70;;;;;;5152573;27;20030;-62
2021/03/04 01:32:18;;;;;;;39.70;26.10;;;8.00;80.60;;;;;;5167739;27;20034;-63
2021/03/04 01:34:43;;;;;;;38.53;26.45;;;8.00;80.50;;;;;;5162552;27;20027;-62
2021/03/04 01:37:09;;;;;;;43.83;27.23;;;8.10;80.50;;;;;;5137515;27;20027;-62
2021/03/04 01:39:34;;;;;;;40.88;26.55;;;8.10;80.40;;;;;;5164740;27;20394;-63
2021/03/04 01:42:00;;;;;;;40.53;27.27;;;8.10;80.50;;;;;;5161296;27;20067;-62
2021/03/04 01:44:26;;;;;;;41.25;26.77;;;8.10;80.20;;;;;;5163010;27;20477;-63
2021/03/04 01:46:52;;;;;;;37.83;27.08;;;8.10;80.20;;;;;;5174114;27;20029;-62
2021/03/04 01:49:18;;;;;;;37.95;26.58;;;8.00;80.50;;;;;;5173796;27;20102;-62
2021/03/04 01:51:44;;;;;;;42.80;26.77;;;7.90;80.90;;;;;;5153199;27;20039;-63
2021/03/04 01:54:09;;;;;;;43.30;27.38;;;7.90;80.80;;;;;;5152242;27;20045;-63
2021/03/04 01:56:35;;;;;;;48.42;31.10;;;8.00;80.70;;;;;;5153439;27;20038;-63
2021/03/04 01:59:02;;;;;;;43.67;28.08;;;8.00;80.70;;;;;;5147469;27;20040;-63
2021/03/04 02:01:28;;;;;;;46.25;29.15;;;7.90;80.80;;;;;;5173761;27;20397;-63
2021/03/04 02:03:53;;;;;;;43.90;28.10;;;7.90;80.80;;;;;;5171323;27;20042;-63
2021/03/04 02:06:26;;;;;;;43.00;28.15;;;7.90;80.90;;;;;;5155033;27;20042;-63
2021/03/04 02:08:59;;;;;;;44.25;30.20;;;8.00;80.60;;;;;;5152230;27;20027;-62
2021/03/04 02:11:33;;;;;;;46.63;28.85;;;7.90;80.50;;;;;;5162735;27;20109;-62
2021/03/04 02:14:06;;;;;;;42.25;28.38;;;8.00;80.70;;;;;;5173448;27;20027;-62
2021/03/04 02:16:41;;;;;;;47.90;32.22;;;7.90;80.70;;;;;;5155290;27;20057;-63
2021/03/04 02:19:44;;;;;;;40.90;28.75;;;7.80;81.10;;;;;;5171894;27;20026;-63
2021/03/04 02:22:46;;;;;;;42.30;30.15;;;7.90;80.80;;;;;;5170885;27;20117;-61
2021/03/04 02:25:12;;;;;;;46.55;30.73;;;7.90;81.10;;;;;;5168808;27;20113;-61
2021/03/04 02:27:39;;;;;;;40.05;27.40;;;7.80;81.00;;;;;;5174014;27;20049;-62
2021/03/04 02:30:15;;;;;;;44.40;29.23;;;7.80;81.10;;;;;;5173840;27;20054;-61
2021/03/04 02:32:48;;;;;;;45.80;29.73;;;7.80;81.30;;;;;;5173542;27;20026;-62
2021/03/04 02:35:18;;;;;;;44.47;28.58;;;7.80;81.20;;;;;;5173268;27;20176;-63
2021/03/04 02:37:49;;;;;;;46.97;28.92;;;7.80;81.30;;;;;;5155013;27;20033;-62
2021/03/04 02:40:16;;;;;;;47.38;30.15;;;7.80;81.30;;;;;;5154920;27;20030;-61
2021/03/04 02:42:43;;;;;;;44.42;30.25;;;7.70;81.50;;;;;;5152596;27;20033;-62
2021/03/04 02:45:11;;;;;;;43.95;28.35;;;7.70;81.40;;;;;;5172817;27;20362;-62
2021/03/04 02:47:39;;;;;;;47.00;29.45;;;7.70;81.30;;;;;;5147920;27;20491;-60
2021/03/04 02:50:07;;;;;;;51.60;31.23;;;7.70;81.70;;;;;;5154834;27;20513;-61
2021/03/04 02:52:34;;;;;;;41.55;28.58;;;7.60;81.60;;;;;;5153670;27;20027;-61
2021/03/04 02:55:01;;;;;;;41.25;29.35;;;7.70;81.60;;;;;;5152548;27;20049;-62
2021/03/04 02:57:27;;;;;;;45.72;31.15;;;7.70;81.40;;;;;;5153586;27;20038;-62
2021/03/04 02:59:54;;;;;;;47.10;29.67;;;7.70;81.40;;;;;;5155078;27;20030;-61
2021/03/04 03:02:20;;;;;;;45.10;29.83;;;7.70;81.70;;;;;;5168795;27;20079;-62
2021/03/04 03:04:47;;;;;;;41.65;28.85;;;7.80;81.20;;;;;;5166370;27;20186;-63
2021/03/04 03:07:14;;;;;;;38.05;25.83;;;7.80;80.80;;;;;;5159748;27;20080;-64
2021/03/04 03:09:43;;;;;;;33.58;23.17;;;7.80;80.80;;;;;;5170439;27;20038;-62
2021/03/04 03:12:11;;;;;;;33.47;23.88;;;7.80;80.80;;;;;;5173329;27;20127;-61
2021/03/04 03:14:37;;;;;;;35.45;25.20;;;7.80;80.90;;;;;;5154604;27;20501;-62
2021/03/04 03:17:04;;;;;;;41.33;26.20;;;7.80;80.70;;;;;;5146587;27;20062;-62
2021/03/04 03:19:31;;;;;;;36.83;25.02;;;7.70;80.80;;;;;;5143234;27;20019;-61
2021/03/04 03:21:56;;;;;;;38.70;26.52;;;7.70;81.10;;;;;;5167374;27;20553;-62
2021/03/04 03:24:23;;;;;;;36.65;26.60;;;7.70;81.20;;;;;;5167241;27;20030;-63
2021/03/04 03:26:49;;;;;;;41.95;26.83;;;7.70;81.10;;;;;;5167129;27;20488;-63
2021/03/04 03:29:15;;;;;;;43.40;28.40;;;7.70;80.90;;;;;;5166178;27;20101;-63
2021/03/04 03:31:42;;;;;;;43.35;27.25;;;7.70;80.90;;;;;;5161762;27;20057;-60
2021/03/04 03:34:09;;;;;;;49.75;31.42;;;7.60;81.50;;;;;;5148450;27;20523;-62
2021/03/04 03:36:36;;;;;;;43.40;29.17;;;7.60;81.70;;;;;;5170708;27;20030;-63
2021/03/04 03:39:05;;;;;;;41.80;26.67;;;7.60;81.60;;;;;;5168241;27;20072;-62
2021/03/04 03:41:33;;;;;;;40.20;26.27;;;7.60;81.30;;;;;;5148885;27;20496;-62
2021/03/04 03:43:59;;;;;;;38.25;25.88;;;7.60;81.20;;;;;;5163493;27;20031;-63
2021/03/04 03:46:26;;;;;;;40.60;28.67;;;7.60;81.40;;;;;;5144936;27;20048;-62
2021/03/04 03:48:52;;;;;;;46.90;31.08;;;7.60;81.70;;;;;;5166687;27;20031;-61
2021/03/04 03:51:18;;;;;;;47.33;30.63;;;7.50;82.00;;;;;;5158485;27;20035;-63
2021/03/04 03:53:44;;;;;;;51.80;31.23;;;7.60;82.10;;;;;;5169186;27;20417;-63
2021/03/04 03:56:11;;;;;;;48.92;30.15;;;7.60;81.90;;;;;;5169120;27;20029;-63
2021/03/04 03:58:38;;;;;;;47.67;32.53;;;7.60;81.90;;;;;;5162235;27;20033;-63
2021/03/04 04:01:05;;;;;;;47.55;32.17;;;7.60;82.10;;;;;;5160377;27;20030;-63
2021/03/04 04:03:31;;;;;;;47.95;30.73;;;7.70;81.80;;;;;;5158595;27;20042;-63
2021/03/04 04:05:57;;;;;;;44.63;28.80;;;7.70;81.70;;;;;;5166455;27;20042;-62
2021/03/04 04:08:25;;;;;;;40.35;27.98;;;7.70;81.50;;;;;;5172331;27;20061;-63
2021/03/04 04:10:51;;;;;;;44.30;29.02;;;7.80;81.40;;;;;;5160969;27;20027;-62
2021/03/04 04:13:18;;;;;;;41.67;28.17;;;7.80;81.30;;;;;;5157458;27;20026;-62
2021/03/04 04:15:43;;;;;;;47.28;28.83;;;7.70;81.50;;;;;;5155671;27;20039;-63
2021/03/04 04:18:10;;;;;;;45.30;29.70;;;7.70;81.60;;;;;;5151321;27;20512;-62
2021/03/04 04:20:36;;;;;;;38.80;27.00;;;7.70;81.50;;;;;;5166545;27;20389;-62
2021/03/04 04:23:03;;;;;;;37.75;26.48;;;7.70;81.50;;;;;;5170871;27;20553;-62
2021/03/04 04:25:29;;;;;;;40.10;26.92;;;7.70;81.30;;;;;;5173901;27;20625;-63
2021/03/04 04:27:56;;;;;;;37.58;26.42;;;7.70;81.30;;;;;;5167950;27;20097;-62
2021/03/04 04:30:24;;;;;;;42.15;29.40;;;7.70;81.60;;;;;;5175889;27;20038;-63
2021/03/04 04:32:49;;;;;;;47.28;29.27;;;7.60;81.70;;;;;;5175674;27;20037;-63
2021/03/04 04:35:16;;;;;;;44.80;29.85;;;7.60;81.80;;;;;;5156496;27;20122;-63
2021/03/04 04:37:42;;;;;;;48.28;31.77;;;7.70;81.90;;;;;;5182064;27;20026;-64
2021/03/04 04:40:09;;;;;;;72.88;45.08;;;7.60;81.80;;;;;;5179933;27;20056;-63
2021/03/04 04:42:34;;;;;;;58.95;36.47;;;7.70;81.60;;;;;;5176252;27;20038;-61
2021/03/04 04:45:02;;;;;;;50.67;30.25;;;7.70;81.40;;;;;;5175490;27;20046;-63
2021/03/04 04:47:27;;;;;;;43.38;30.88;;;7.60;81.40;;;;;;5175949;27;20018;-62
2021/03/04 04:49:53;;;;;;;46.28;30.85;;;7.50;81.60;;;;;;5157193;27;20493;-63
2021/03/04 04:52:18;;;;;;;47.17;30.23;;;7.50;81.90;;;;;;5156795;27;20035;-63
2021/03/04 04:54:46;;;;;;;45.50;31.48;;;7.50;82.10;;;;;;5173457;27;20038;-62
2021/03/04 04:57:12;;;;;;;43.75;30.13;;;7.50;81.90;;;;;;5175767;27;20018;-61
2021/03/04 04:59:38;;;;;;;44.97;31.20;;;7.50;82.00;;;;;;5175702;27;20022;-62
2021/03/04 05:02:03;;;;;;;48.58;30.90;;;7.50;81.90;;;;;;5174988;27;20034;-61
2021/03/04 05:04:29;;;;;;;50.60;31.27;;;7.60;81.90;;;;;;5173361;27;20065;-63
2021/03/04 05:06:55;;;;;;;51.17;33.80;;;7.50;82.10;;;;;;5153963;27;20048;-63
2021/03/04 05:09:20;;;;;;;51.00;32.60;;;7.50;82.20;;;;;;5154141;27;20500;-63
2021/03/04 05:11:48;;;;;;;46.25;30.88;;;7.50;82.10;;;;;;5153690;27;20394;-62
2021/03/04 05:14:14;;;;;;;48.70;31.60;;;7.50;82.10;;;;;;5151367;27;20030;-63
2021/03/04 05:16:40;;;;;;;44.08;29.83;;;7.50;82.10;;;;;;5174678;27;20034;-63
2021/03/04 05:19:05;;;;;;;44.42;30.63;;;7.60;82.10;;;;;;5174751;27;20026;-62
2021/03/04 05:21:31;;;;;;;47.03;30.10;;;7.60;81.90;;;;;;5174668;27;20034;-62
2021/03/04 05:23:57;;;;;;;51.20;31.80;;;7.50;82.40;;;;;;5160274;27;20050;-63
2021/03/04 05:26:22;;;;;;;50.05;32.40;;;7.40;82.30;;;;;;5171631;27;20101;-63
2021/03/04 05:28:48;;;;;;;47.83;32.28;;;7.50;82.70;;;;;;5175203;27;20049;-62
2021/03/04 05:31:14;;;;;;;46.63;32.25;;;7.40;82.60;;;;;;5174180;27;20521;-63
2021/03/04 05:33:39;;;;;;;55.95;34.17;;;7.30;82.90;;;;;;5174164;27;20122;-64
2021/03/04 05:36:05;;;;;;;53.83;34.63;;;7.30;83.00;;;;;;5174345;27;20109;-62
2021/03/04 05:38:31;;;;;;;56.17;35.63;;;7.20;83.70;;;;;;5155855;27;20125;-63
2021/03/04 05:40:57;;;;;;;66.47;40.17;;;7.20;83.80;;;;;;5174234;27;20062;-62
2021/03/04 05:43:23;;;;;;;60.25;36.80;;;7.20;83.80;;;;;;5174307;27;20433;-64
2021/03/04 05:45:49;;;;;;;64.43;40.70;;;7.20;83.60;;;;;;5155403;27;20030;-62
2021/03/04 05:48:21;;;;;;;55.58;33.58;;;7.10;84.10;;;;;;5174044;27;20475;-63
2021/03/04 05:50:51;;;;;;;56.53;36.83;;;7.10;84.00;;;;;;5155307;27;20033;-63
2021/03/04 05:53:21;;;;;;;52.47;34.85;;;7.00;83.90;;;;;;5173777;27;20053;-63
2021/03/04 05:55:47;;;;;;;57.33;39.85;;;7.10;84.20;;;;;;5154964;27;20117;-63
2021/03/04 05:58:14;;;;;;;54.15;36.85;;;7.00;85.00;;;;;;5174392;27;20054;-63
2021/03/04 06:00:44;;;;;;;53.75;33.33;;;7.10;85.10;;;;;;5154787;27;20026;-62
2021/03/04 06:03:11;;;;;;;52.00;34.90;;;7.10;83.90;;;;;;5174037;27;20512;-63
2021/03/04 06:05:37;;;;;;;44.67;32.13;;;7.10;84.20;;;;;;5173755;27;20492;-61
2021/03/04 06:08:05;;;;;;;54.67;34.30;;;7.10;83.90;;;;;;5173301;27;20026;-63
2021/03/04 06:10:31;;;;;;;60.03;35.60;;;7.10;83.90;;;;;;5174177;27;20245;-63
2021/03/04 06:12:57;;;;;;;57.67;36.97;;;7.10;83.70;;;;;;5155362;27;20030;-62
2021/03/04 06:15:24;;;;;;;54.28;38.13;;;7.10;83.90;;;;;;5155107;27;20121;-63
2021/03/04 06:17:54;;;;;;;54.05;35.90;;;7.10;83.90;;;;;;5173856;27;20032;-63
2021/03/04 06:20:20;;;;;;;64.05;36.97;;;7.10;84.50;;;;;;5174021;27;20026;-62
2021/03/04 06:22:47;;;;;;;62.58;40.88;;;7.10;84.30;;;;;;5173776;27;20034;-65
2021/03/04 06:25:14;;;;;;;69.95;44.45;;;7.20;83.90;;;;;;5168972;27;20058;-63
2021/03/04 06:27:46;;;;;;;60.55;39.47;;;7.20;83.90;;;;;;5155448;27;20401;-63
2021/03/04 06:30:16;;;;;;;66.68;38.25;;;7.20;83.90;;;;;;5173999;27;20034;-61
2021/03/04 06:32:58;;;;;;;60.35;37.67;;;7.30;83.90;;;;;;5154996;27;20058;-62
2021/03/04 06:35:30;;;;;;;62.72;38.17;;;7.30;83.80;;;;;;5175119;27;20034;-63
2021/03/04 06:37:55;;;;;;;56.30;37.53;;;7.30;83.80;;;;;;5159762;27;20034;-63
2021/03/04 06:40:39;;;;;;;50.35;36.40;;;7.40;83.50;;;;;;5177995;27;20121;-62
2021/03/04 06:43:05;;;;;;;60.27;37.50;;;7.50;83.10;;;;;;5171532;27;20022;-63
2021/03/04 06:45:33;;;;;;;58.50;36.05;;;7.60;83.10;;;;;;5175805;27;20045;-62
2021/03/04 06:48:09;;;;;;;61.20;40.25;;;7.60;82.80;;;;;;5175367;27;20137;-63
2021/03/04 06:50:36;;;;;;;51.85;35.47;;;7.60;82.50;;;;;;5156554;27;20121;-62
2021/03/04 06:53:22;;;;;;;56.03;38.17;;;7.60;82.80;;;;;;5165698;27;20026;-62
2021/03/04 06:55:56;;;;;;;57.58;34.33;;;7.60;82.90;;;;;;5177208;27;20101;-63
2021/03/04 06:58:27;;;;;;;51.72;34.45;;;7.60;82.90;;;;;;5175738;27;20084;-63
2021/03/04 07:01:02;;;;;;;59.47;38.70;;;7.60;82.90;;;;;;5176901;27;20030;-61
2021/03/04 07:03:54;;;;;;;54.53;38.42;;;7.60;82.80;;;;;;5162459;27;20083;-62
2021/03/04 07:06:23;;;;;;;65.65;36.47;;;7.70;82.60;;;;;;5159778;27;20106;-62
2021/03/04 07:08:51;;;;;;;64.15;38.72;;;7.70;82.50;;;;;;5176696;27;20126;-62
2021/03/04 07:11:18;;;;;;;63.78;38.30;;;7.70;81.90;;;;;;5157422;27;20033;-63
2021/03/04 07:13:45;;;;;;;64.65;39.53;;;7.60;82.10;;;;;;5169777;27;20035;-63
2021/03/04 07:16:18;;;;;;;57.63;39.20;;;7.40;82.70;;;;;;5150278;27;20030;-62
2021/03/04 07:18:49;;;;;;;64.43;42.85;;;7.30;83.20;;;;;;5168490;27;20030;-63
2021/03/04 07:21:17;;;;;;;77.53;46.88;;;7.20;84.20;;;;;;5181783;27;20030;-62
2021/03/04 07:23:44;;;;;;;76.38;44.97;;;7.20;84.30;;;;;;5138317;27;20363;-64
2021/03/04 07:26:11;;;;;;;77.55;49.55;;;7.10;84.80;;;;;;5156355;27;20076;-63
2021/03/04 07:28:39;;;;;;;96.47;61.20;;;7.10;84.80;;;;;;5176971;27;20034;-62
2021/03/04 07:31:05;;;;;;;91.80;58.50;;;7.00;86.10;;;;;;5168491;27;20035;-62
2021/03/04 07:33:34;;;;;;;95.47;62.08;;;6.90;86.30;;;;;;5157687;27;20075;-62
2021/03/04 07:36:02;;;;;;;101.10;62.70;;;6.90;86.70;;;;;;5176552;27;20392;-63
2021/03/04 07:38:29;;;;;;;99.35;64.30;;;6.70;87.10;;;;;;5163954;27;20435;-63
2021/03/04 07:41:08;;;;;;;103.00;64.10;;;6.70;87.40;;;;;;5163678;27;20022;-63
2021/03/04 07:43:49;;;;;;;106.50;65.82;;;6.70;87.60;;;;;;5167300;27;20023;-61
2021/03/04 07:46:37;;;;;;;103.32;66.05;;;6.70;87.10;;;;;;5168353;27;20033;-63
2021/03/04 07:49:05;;;;;;;103.47;63.90;;;6.80;86.90;;;;;;5155566;27;20031;-63
2021/03/04 07:51:46;;;;;;;98.13;62.45;;;6.70;87.10;;;;;;5153620;27;20035;-62
2021/03/04 07:54:12;;;;;;;101.32;66.45;;;6.80;86.90;;;;;;5157143;27;20030;-62
2021/03/04 07:56:38;;;;;;;106.18;65.88;;;6.80;86.80;;;;;;5167048;27;20138;-61
2021/03/04 07:59:13;;;;;;;98.28;63.92;;;6.60;87.60;;;;;;5155252;27;20034;-63
2021/03/04 08:01:42;;;;;;;;;;;6.70;87.50;;;;;;5168282;27;20547;-62
2021/03/04 08:04:20;;;;;;;105.20;66.30;;;6.40;88.50;;;;;;5156814;27;19917;-64
2021/03/04 08:06:48;;;;;;;112.22;69.75;;;6.30;89.40;;;;;;5170775;27;20038;-63
2021/03/04 08:09:33;;;;;;;111.00;69.45;;;6.10;89.90;;;;;;5166309;27;20030;-64
2021/03/04 08:12:06;;;;;;;108.78;69.18;;;6.20;89.80;;;;;;5167638;27;20068;-64
2021/03/04 08:14:32;;;;;;;117.35;72.70;;;6.30;89.30;;;;;;5175680;27;20522;-61
2021/03/04 08:16:58;;;;;;;129.07;79.35;;;6.00;90.10;;;;;;5175997;27;20523;-62
2021/03/04 08:19:28;;;;;;;118.80;73.32;;;6.10;90.30;;;;;;5157713;27;20034;-63
2021/03/04 08:22:01;;;;;;;126.53;77.18;;;5.90;90.50;;;;;;5175531;27;20036;-63
2021/03/04 08:24:28;;;;;;;136.63;80.57;;;5.80;90.90;;;;;;5171215;27;20080;-63
2021/03/04 08:26:56;;;;;;;132.32;77.65;;;5.60;91.40;;;;;;5147666;27;20033;-63
2021/03/04 08:29:23;;;;;;;135.23;83.68;;;5.50;91.60;;;;;;5173091;27;20598;-63
2021/03/04 08:31:48;;;;;;;135.57;81.45;;;5.50;91.50;;;;;;5176032;27;20121;-62
2021/03/04 08:34:14;;;;;;;135.73;81.93;;;5.70;91.80;;;;;;5176542;27;20781;-63
2021/03/04 08:36:45;;;;;;;131.30;79.32;;;5.80;91.40;;;;;;5175063;27;20511;-64
2021/03/04 08:39:11;;;;;;;137.30;81.68;;;5.80;91.40;;;;;;5156955;27;20481;-63
2021/03/04 08:41:38;;;;;;;130.80;80.65;;;5.90;91.40;;;;;;5142437;27;20062;-63
2021/03/04 08:44:14;;;;;;;135.15;82.68;;;5.90;91.50;;;;;;5154109;27;20117;-62
2021/03/04 08:46:41;;;;;;;129.23;78.82;;;5.90;91.70;;;;;;5151163;27;20108;-64
2021/03/04 08:49:07;;;;;;;127.70;77.35;;;6.00;91.20;;;;;;5175701;27;20033;-63
2021/03/04 08:51:43;;;;;;;132.02;78.63;;;6.20;90.90;;;;;;5156015;27;20389;-62
2021/03/04 08:54:22;;;;;;;135.43;82.80;;;6.30;91.00;;;;;;5154675;27;20034;-62
2021/03/04 08:56:56;;;;;;;133.43;77.82;;;6.20;91.00;;;;;;5154071;27;20103;-64
2021/03/04 08:59:23;;;;;;;138.80;81.65;;;6.20;91.20;;;;;;5156754;27;20054;-61
2021/03/04 09:01:49;;;;;;;140.13;81.95;;;6.30;90.90;;;;;;5174934;27;20033;-62
2021/03/04 09:04:22;;;;;;;142.20;85.32;;;6.20;91.30;;;;;;5139093;27;20031;-62
2021/03/04 09:06:48;;;;;;;139.88;82.53;;;6.30;91.10;;;;;;5154186;27;20212;-62
2021/03/04 09:09:27;;;;;;;145.60;81.93;;;6.30;91.20;;;;;;5148048;27;20544;-62
2021/03/04 09:11:53;;;;;;;139.02;81.47;;;6.40;91.20;;;;;;5152562;27;20019;-62
2021/03/04 09:14:26;;;;;;;150.20;84.47;;;6.40;90.90;;;;;;5161788;27;20047;-63
2021/03/04 09:16:51;;;;;;;139.85;79.60;;;6.40;91.10;;;;;;5154102;27;20634;-62
2021/03/04 09:19:53;;;;;;;149.20;82.15;;;6.50;90.80;;;;;;5148543;27;20026;-62
2021/03/04 09:22:20;;;;;;;150.73;82.30;;;6.50;91.00;;;;;;5119022;27;20050;-62
2021/03/04 09:24:47;;;;;;;147.65;81.40;;;6.50;90.70;;;;;;5149373;27;20042;-63
2021/03/04 09:27:13;;;;;;;150.35;84.43;;;6.50;90.70;;;;;;5169325;27;20039;-62
2021/03/04 09:29:41;;;;;;;144.80;82.78;;;6.50;90.80;;;;;;5171314;27;20038;-63
2021/03/04 09:32:07;;;;;;;144.70;83.72;;;6.50;90.90;;;;;;5170732;27;20026;-62
2021/03/04 09:34:41;;;;;;;142.20;83.35;;;6.60;90.80;;;;;;5170820;27;20434;-63
2021/03/04 09:37:11;;;;;;;146.80;80.80;;;6.70;90.70;;;;;;5166414;27;20030;-63
2021/03/04 09:39:46;;;;;;;142.40;81.90;;;6.70;90.50;;;;;;5169282;27;20026;-63
2021/03/04 09:42:19;;;;;;;152.48;83.15;;;6.70;90.30;;;;;;5156941;27;20113;-62
2021/03/04 09:44:51;;;;;;;143.70;82.65;;;6.60;90.90;;;;;;5173270;27;20112;-62
2021/03/04 09:47:18;;;;;;;145.13;80.60;;;6.60;90.90;;;;;;5155428;27;20023;-62
2021/03/04 09:49:44;;;;;;;150.60;85.63;;;6.60;90.70;;;;;;5141823;27;20106;-63
2021/03/04 09:52:39;;;;;;;149.10;84.97;;;6.60;90.90;;;;;;5168972;27;20130;-63
2021/03/04 09:55:12;;;;;;;152.70;83.47;;;6.70;90.80;;;;;;5115507;27;20405;-62
2021/03/04 09:57:42;;;;;;;148.98;83.78;;;6.60;90.80;;;;;;5152831;27;20536;-63
2021/03/04 10:00:15;;;;;;;154.23;83.85;;;6.70;91.10;;;;;;5141315;27;20095;-63
2021/03/04 10:02:40;;;;;;;148.82;84.35;;;6.80;90.80;;;;;;5159594;27;20114;-63
2021/03/04 10:05:12;;;;;;;151.35;84.78;;;6.80;90.30;;;;;;5148671;27;20137;-65
2021/03/04 10:07:38;;;;;;;162.88;87.18;;;6.90;90.40;;;;;;5174282;27;20380;-63
2021/03/04 10:10:04;;;;;;;156.10;87.05;;;6.80;90.60;;;;;;5176854;27;20117;-63
2021/03/04 10:12:30;;;;;;;161.00;87.50;;;6.60;90.90;;;;;;5170714;27;20034;-63
2021/03/04 10:14:56;;;;;;;157.10;84.18;;;6.50;91.50;;;;;;5161469;27;20045;-62
2021/03/04 10:17:23;;;;;;;154.15;82.13;;;6.60;91.10;;;;;;5170181;27;20388;-63
2021/03/04 10:19:49;;;;;;;160.77;83.82;;;6.70;91.20;;;;;;5153579;27;20039;-62
2021/03/04 10:22:15;;;;;;;147.90;80.22;;;6.80;90.80;;;;;;5175310;27;20516;-62
2021/03/04 10:24:40;;;;;;;152.38;81.55;;;6.90;90.40;;;;;;5173409;27;20038;-63
2021/03/04 10:27:07;;;;;;;153.32;81.75;;;6.90;90.40;;;;;;5138135;27;20091;-63
2021/03/04 10:29:34;;;;;;;150.10;80.63;;;6.90;90.60;;;;;;5167250;27;20038;-64
2021/03/04 10:32:00;;;;;;;160.75;81.30;;;6.90;90.30;;;;;;5175641;27;20488;-62
2021/03/04 10:34:26;;;;;;;160.05;85.28;;;7.00;90.30;;;;;;5177359;27;20044;-64
2021/03/04 10:36:52;;;;;;;149.90;81.25;;;7.10;90.20;;;;;;5170181;27;20105;-63
2021/03/04 10:39:19;;;;;;;160.00;81.70;;;7.10;90.10;;;;;;5159130;27;20041;-62
2021/03/04 10:41:45;;;;;;;145.05;77.40;;;7.00;90.30;;;;;;5166292;27;20543;-64
2021/03/04 10:44:11;;;;;;;159.82;84.03;;;7.00;90.20;;;;;;5156500;27;20039;-63
2021/03/04 10:46:38;;;;;;;167.38;81.82;;;6.90;90.50;;;;;;5148971;27;20472;-63
2021/03/04 10:49:05;;;;;;;159.55;81.25;;;6.90;90.50;;;;;;5163783;27;20045;-63
2021/03/04 10:51:31;;;;;;;161.68;82.70;;;6.80;90.70;;;;;;5166657;27;20030;-65
2021/03/04 10:53:57;;;;;;;162.57;81.45;;;6.80;90.80;;;;;;5156146;27;20351;-64
2021/03/04 10:56:23;;;;;;;162.50;83.97;;;6.70;91.00;;;;;;5167096;27;20037;-62
2021/03/04 10:58:48;;;;;;;150.85;80.72;;;6.80;90.80;;;;;;5148655;27;20038;-63
2021/03/04 11:01:14;;;;;;;167.23;85.57;;;6.70;91.10;;;;;;5171567;27;20189;-63
2021/03/04 11:03:39;;;;;;;161.35;83.35;;;6.70;91.10;;;;;;5158350;27;20043;-62
2021/03/04 11:06:06;;;;;;;173.10;86.78;;;6.70;91.10;;;;;;5173675;27;20509;-61
2021/03/04 11:08:31;;;;;;;171.25;84.90;;;6.70;91.00;;;;;;5134702;27;20036;-63
2021/03/04 11:10:57;;;;;;;174.15;83.80;;;6.80;91.20;;;;;;5157349;27;20521;-63
2021/03/04 11:13:23;;;;;;;164.90;81.97;;;6.90;90.90;;;;;;5176844;27;20068;-64
2021/03/04 11:15:48;;;;;;;174.73;83.63;;;7.00;90.70;;;;;;5177051;27;20041;-63
2021/03/04 11:18:14;;;;;;;165.68;83.15;;;7.00;90.50;;;;;;5173578;27;20038;-64
2021/03/04 11:20:40;;;;;;;169.93;83.30;;;6.90;90.60;;;;;;5176519;27;20085;-62
2021/03/04 11:23:09;;;;;;;172.07;83.38;;;6.80;90.80;;;;;;5173850;27;20063;-64
2021/03/04 11:25:35;;;;;;;172.55;86.03;;;6.70;91.10;;;;;;5167496;27;20026;-62
2021/03/04 11:28:00;;;;;;;173.95;85.45;;;6.90;90.80;;;;;;5162263;27;20543;-64
2021/03/04 11:30:26;;;;;;;173.98;87.70;;;6.80;90.80;;;;;;5146454;27;20026;-63
2021/03/04 11:32:52;;;;;;;174.93;85.70;;;6.80;91.00;;;;;;5165448;27;20031;-62
2021/03/04 11:35:17;;;;;;;174.43;86.35;;;6.90;91.00;;;;;;5158511;27;20446;-63
2021/03/04 11:37:43;;;;;;;178.38;88.28;;;6.80;90.90;;;;;;5170488;27;20049;-61
2021/03/04 11:40:09;;;;;;;184.90;87.40;;;6.70;91.30;;;;;;5162359;27;20047;-63
2021/03/04 11:42:34;;;;;;;186.23;89.50;;;6.80;91.00;;;;;;5167372;27;20033;-63
2021/03/04 11:45:00;;;;;;;184.00;86.72;;;6.70;91.00;;;;;;5174351;27;20393;-63
2021/03/04 11:47:26;;;;;;;197.20;92.25;;;6.60;91.20;;;;;;5153806;27;20035;-64
2021/03/04 11:49:53;;;;;;;193.05;92.63;;;6.70;91.10;;;;;;5170375;27;20112;-63
2021/03/04 11:52:19;;;;;;;195.25;88.43;;;6.60;91.20;;;;;;5154007;27;20050;-63
2021/03/04 11:54:45;;;;;;;177.20;85.82;;;6.60;91.50;;;;;;5176179;27;20031;-64
2021/03/04 11:57:10;;;;;;;187.77;85.97;;;6.50;91.20;;;;;;5176616;27;20027;-62
2021/03/04 11:59:36;;;;;;;169.55;81.28;;;6.50;91.30;;;;;;5148646;27;20577;-64
2021/03/04 12:02:01;;;;;;;174.27;82.20;;;6.50;91.30;;;;;;5161876;27;20054;-62
2021/03/04 12:04:28;;;;;;;181.98;84.65;;;6.50;91.50;;;;;;5167994;27;20114;-63
2021/03/04 12:06:53;;;;;;;177.43;84.40;;;6.50;91.20;;;;;;5161972;27;20092;-64
2021/03/04 12:09:19;;;;;;;171.60;83.18;;;6.50;91.10;;;;;;5164790;27;20026;-62
2021/03/04 12:11:46;;;;;;;160.07;77.20;;;6.60;91.00;;;;;;5137982;27;20023;-62
2021/03/04 12:14:12;;;;;;;166.63;79.28;;;6.50;91.10;;;;;;5169040;27;20030;-63
2021/03/04 12:16:38;;;;;;;162.80;77.68;;;6.30;91.50;;;;;;5170120;27;20370;-62
2021/03/04 12:19:03;;;;;;;166.13;78.40;;;6.40;91.40;;;;;;5167932;27;20054;-63
2021/03/04 12:21:29;;;;;;;159.68;77.80;;;6.30;91.20;;;;;;5162072;27;20027;-62
2021/03/04 12:23:54;;;;;;;157.13;75.28;;;6.40;91.20;;;;;;5166543;27;20038;-63
2021/03/04 12:26:20;;;;;;;150.55;73.30;;;6.40;91.20;;;;;;5175858;27;20541;-62
2021/03/04 12:28:46;;;;;;;147.48;74.38;;;6.40;91.10;;;;;;5160017;27;20489;-62
2021/03/04 12:31:11;;;;;;;154.85;77.80;;;6.40;91.00;;;;;;5160732;27;20029;-63
2021/03/04 12:33:37;;;;;;;144.68;71.53;;;6.40;91.00;;;;;;5161818;27;20034;-62
2021/03/04 12:36:05;;;;;;;148.45;70.45;;;6.50;90.80;;;;;;5163050;27;20105;-63
2021/03/04 12:38:31;;;;;;;150.80;72.60;;;6.40;90.60;;;;;;5170474;27;20027;-63